createdAt,value
2022-12-01T00:00:06.780Z,23.35
2022-12-01T00:02:34.229Z,27.42
2022-12-01T00:05:02.463Z,25.23
2022-12-01T00:07:35.129Z,25.17
2022-12-01T00:10:23.411Z,25.52
2022-12-01T00:13:00.300Z,25.30
2022-12-01T00:15:37.325Z,27.95
2022-12-01T00:18:06.906Z,25.80
2022-12-01T00:20:35.680Z,24.60
2022-12-01T00:23:14.036Z,24.98
2022-12-01T00:25:43.712Z,27.38
2022-12-01T00:28:38.081Z,24.65
2022-12-01T00:31:10.822Z,26.88
2022-12-01T00:33:41.563Z,27.60
2022-12-01T00:36:19.423Z,28.70
2022-12-01T00:38:47.746Z,30.45
2022-12-01T00:41:21.373Z,28.33
2022-12-01T00:44:01.284Z,29.13
2022-12-01T00:46:28.856Z,26.27
2022-12-01T00:48:56.335Z,26.88
2022-12-01T00:51:24.473Z,27.98
2022-12-01T00:53:51.886Z,28.55
2022-12-01T00:56:21.011Z,26.00
2022-12-01T00:58:48.321Z,25.23
2022-12-01T01:01:16.025Z,28.35
2022-12-01T01:03:43.449Z,29.30
2022-12-01T01:06:13.470Z,27.55
2022-12-01T01:08:41.731Z,29.17
2022-12-01T01:11:12.263Z,27.67
2022-12-01T01:13:42.045Z,28.65
2022-12-01T01:16:21.018Z,28.55
2022-12-01T01:18:49.357Z,24.70
2022-12-01T01:21:22.501Z,26.35
2022-12-01T01:23:52.541Z,27.95
2022-12-01T01:27:24.698Z,26.45
2022-12-01T01:30:20.484Z,26.60
2022-12-01T01:32:24.200Z,27.35
2022-12-01T01:35:06.822Z,25.67
2022-12-01T01:37:56.883Z,29.42
2022-12-01T01:40:52.623Z,28.17
2022-12-01T01:43:41.273Z,29.17
2022-12-01T01:46:26.095Z,27.17
2022-12-01T01:49:04.065Z,28.70
2022-12-01T01:51:56.718Z,29.85
2022-12-01T01:54:38.583Z,28.77
2022-12-01T01:57:20.409Z,27.48
2022-12-01T02:00:04.346Z,30.13
2022-12-01T02:02:47.689Z,27.33
2022-12-01T02:05:42.067Z,27.02
2022-12-01T02:08:12.490Z,27.67
2022-12-01T02:11:20.220Z,30.40
2022-12-01T02:14:12.745Z,27.58
2022-12-01T02:17:52.281Z,27.85
2022-12-01T02:21:08.466Z,27.83
2022-12-01T02:24:12.828Z,29.20
2022-12-01T02:27:05.368Z,30.48
2022-12-01T02:30:17.496Z,27.55
2022-12-01T02:33:24.468Z,27.48
2022-12-01T02:36:54.380Z,27.90
2022-12-01T02:39:56.052Z,27.73
2022-12-01T02:43:04.977Z,29.23
2022-12-01T02:45:51.557Z,29.55
2022-12-01T02:48:41.491Z,27.92
2022-12-01T02:51:24.751Z,27.52
2022-12-01T02:53:53.728Z,30.42
2022-12-01T02:56:24.132Z,29.75
2022-12-01T02:58:58.999Z,29.85
2022-12-01T03:01:52.453Z,26.35
2022-12-01T03:04:45.624Z,26.67
2022-12-01T03:07:21.239Z,26.98
2022-12-01T03:10:25.849Z,27.33
2022-12-01T03:13:50.872Z,28.08
2022-12-01T03:16:50.848Z,26.70
2022-12-01T03:19:40.589Z,26.92
2022-12-01T03:22:31.967Z,25.13
2022-12-01T03:25:04.799Z,26.13
2022-12-01T03:27:44.109Z,26.23
2022-12-01T03:30:18.750Z,27.58
2022-12-01T03:33:01.250Z,28.88
2022-12-01T03:35:41.855Z,29.10
2022-12-01T03:38:24.614Z,27.70
2022-12-01T03:41:08.652Z,28.48
2022-12-01T03:43:44.754Z,28.40
2022-12-01T03:46:44.455Z,28.00
2022-12-01T03:49:15.436Z,28.15
2022-12-01T03:52:01.091Z,27.27
2022-12-01T03:55:23.751Z,30.45
2022-12-01T03:58:14.629Z,26.65
2022-12-01T04:00:43.865Z,33.92
2022-12-01T04:03:20.341Z,26.83
2022-12-01T04:05:47.771Z,28.33
2022-12-01T04:08:15.480Z,27.85
2022-12-01T04:10:47.914Z,31.17
2022-12-01T04:13:24.140Z,26.98
2022-12-01T04:15:53.636Z,29.98
2022-12-01T04:18:22.135Z,25.98
2022-12-01T04:20:50.781Z,29.05
2022-12-01T04:23:36.863Z,27.20
2022-12-01T04:26:05.327Z,26.17
2022-12-01T04:28:32.764Z,25.60
2022-12-01T04:31:00.108Z,27.90
2022-12-01T04:33:29.636Z,26.55
2022-12-01T04:36:01.459Z,27.65
2022-12-01T04:38:30.819Z,27.58
2022-12-01T04:40:59.084Z,29.77
2022-12-01T04:43:26.592Z,27.65
2022-12-01T04:45:55.073Z,31.38
2022-12-01T04:48:22.348Z,27.90
2022-12-01T04:50:49.982Z,25.15
2022-12-01T04:53:17.246Z,25.73
2022-12-01T04:55:44.515Z,27.80
2022-12-01T04:58:11.844Z,27.92
2022-12-01T05:00:39.419Z,27.23
2022-12-01T05:03:09.646Z,28.00
2022-12-01T05:05:43.576Z,26.40
2022-12-01T05:08:11.728Z,27.42
2022-12-01T05:10:39.125Z,26.40
2022-12-01T05:13:06.610Z,25.58
2022-12-01T05:15:34.321Z,25.20
2022-12-01T05:18:14.735Z,26.42
2022-12-01T05:21:01.145Z,26.08
2022-12-01T05:23:36.948Z,28.45
2022-12-01T05:26:08.241Z,26.83
2022-12-01T05:28:38.805Z,27.30
2022-12-01T05:31:06.307Z,27.65
2022-12-01T05:33:33.850Z,32.65
2022-12-01T05:36:01.130Z,27.45
2022-12-01T05:38:28.405Z,31.23
2022-12-01T05:40:56.387Z,30.00
2022-12-01T05:43:29.158Z,27.10
2022-12-01T05:45:58.351Z,26.52
2022-12-01T05:48:26.259Z,29.95
2022-12-01T05:50:56.031Z,29.75
2022-12-01T05:53:23.348Z,29.17
2022-12-01T05:55:54.839Z,30.08
2022-12-01T05:58:22.946Z,28.90
2022-12-01T06:00:50.648Z,29.90
2022-12-01T06:03:17.879Z,28.73
2022-12-01T06:05:45.108Z,30.08
2022-12-01T06:08:12.409Z,29.52
2022-12-01T06:10:39.996Z,31.30
2022-12-01T06:13:07.429Z,31.63
2022-12-01T06:15:34.663Z,32.38
2022-12-01T06:18:02.425Z,33.60
2022-12-01T06:20:29.959Z,33.03
2022-12-01T06:23:10.197Z,31.33
2022-12-01T06:25:37.782Z,31.27
2022-12-01T06:28:20.128Z,31.00
2022-12-01T06:30:54.508Z,33.67
2022-12-01T06:33:25.263Z,30.98
2022-12-01T06:36:06.992Z,30.63
2022-12-01T06:38:37.157Z,31.02
2022-12-01T06:41:05.940Z,32.80
2022-12-01T06:43:40.815Z,33.22
2022-12-01T06:46:08.082Z,33.47
2022-12-01T06:48:35.544Z,32.72
2022-12-01T06:51:10.782Z,32.08
2022-12-01T06:53:40.809Z,31.25
2022-12-01T06:56:08.202Z,33.72
2022-12-01T06:58:35.765Z,31.15
2022-12-01T07:01:12.891Z,33.97
2022-12-01T07:03:40.252Z,33.60
2022-12-01T07:06:10.454Z,33.42
2022-12-01T07:08:38.099Z,35.30
2022-12-01T07:11:13.959Z,32.72
2022-12-01T07:13:45.515Z,33.63
2022-12-01T07:16:13.356Z,30.70
2022-12-01T07:18:41.227Z,32.78
2022-12-01T07:21:13.946Z,33.22
2022-12-01T07:23:41.545Z,35.38
2022-12-01T07:26:37.654Z,34.70
2022-12-01T07:29:28.573Z,37.10
2022-12-01T07:32:10.654Z,34.35
2022-12-01T07:34:40.109Z,35.17
2022-12-01T07:37:07.500Z,34.95
2022-12-01T07:39:37.136Z,32.17
2022-12-01T07:42:04.845Z,33.63
2022-12-01T07:44:32.255Z,35.05
2022-12-01T07:46:59.902Z,31.58
2022-12-01T07:49:27.398Z,34.42
2022-12-01T07:51:54.960Z,34.30
2022-12-01T07:54:22.425Z,32.25
2022-12-01T07:56:49.813Z,36.67
2022-12-01T07:59:17.636Z,35.05
2022-12-01T08:01:46.374Z,33.92
2022-12-01T08:04:13.847Z,32.55
2022-12-01T08:06:43.556Z,32.67
2022-12-01T08:09:10.835Z,33.33
2022-12-01T08:11:38.115Z,30.35
2022-12-01T08:14:07.983Z,32.10
2022-12-01T08:16:38.563Z,33.05
2022-12-01T08:19:12.481Z,33.80
2022-12-01T08:21:40.013Z,34.45
2022-12-01T08:24:08.204Z,37.38
2022-12-01T08:26:35.405Z,33.80
2022-12-01T08:29:06.275Z,32.15
2022-12-01T08:31:36.614Z,30.65
2022-12-01T08:34:10.036Z,32.45
2022-12-01T08:36:37.516Z,34.80
2022-12-01T08:39:07.529Z,34.28
2022-12-01T08:41:35.174Z,31.70
2022-12-01T08:44:02.437Z,30.90
2022-12-01T08:46:35.129Z,33.33
2022-12-01T08:49:06.987Z,34.25
2022-12-01T08:51:36.388Z,33.60
2022-12-01T08:54:05.029Z,33.38
2022-12-01T08:56:41.679Z,31.02
2022-12-01T08:59:09.739Z,31.83
2022-12-01T09:01:57.283Z,33.65
2022-12-01T09:04:26.938Z,34.40
2022-12-01T09:06:57.663Z,32.67
2022-12-01T09:09:28.887Z,32.95
2022-12-01T09:11:57.502Z,35.72
2022-12-01T09:14:25.081Z,33.55
2022-12-01T09:16:52.699Z,31.77
2022-12-01T09:19:24.933Z,33.47
2022-12-01T09:23:33.368Z,32.80
2022-12-01T09:25:28.457Z,30.45
2022-12-01T09:28:14.960Z,31.05
2022-12-01T09:31:10.078Z,31.05
2022-12-01T09:33:38.949Z,31.35
2022-12-01T09:36:26.484Z,29.75
2022-12-01T09:38:57.132Z,30.90
2022-12-01T09:45:30.815Z,30.75
2022-12-01T09:48:07.954Z,31.52
2022-12-01T09:50:38.296Z,29.00
2022-12-01T09:53:18.619Z,30.17
2022-12-01T09:55:46.869Z,30.98
2022-12-01T09:58:26.200Z,30.33
2022-12-01T10:00:55.261Z,30.00
2022-12-01T10:03:46.298Z,30.60
2022-12-01T10:06:30.488Z,28.42
2022-12-01T10:09:56.441Z,29.25
2022-12-01T10:12:36.372Z,30.90
2022-12-01T10:15:55.956Z,30.38
2022-12-01T10:19:08.149Z,27.67
2022-12-01T10:22:10.743Z,32.72
2022-12-01T10:25:20.454Z,30.13
2022-12-01T10:28:22.969Z,30.45
2022-12-01T10:31:02.959Z,29.27
2022-12-01T10:34:12.358Z,30.05
2022-12-01T10:36:40.020Z,31.30
2022-12-01T10:39:17.989Z,29.63
2022-12-01T10:41:48.753Z,27.65
2022-12-01T10:50:38.986Z,30.23
2022-12-01T10:53:38.398Z,28.95
2022-12-01T10:56:30.670Z,30.70
2022-12-01T10:59:28.136Z,28.77
2022-12-01T11:02:06.457Z,27.70
2022-12-01T11:05:37.965Z,29.23
2022-12-01T11:07:50.668Z,27.48
2022-12-01T11:10:32.676Z,26.70
2022-12-01T11:13:39.852Z,28.30
2022-12-01T11:16:42.363Z,28.02
2022-12-01T11:19:40.056Z,28.48
2022-12-01T11:22:32.248Z,26.63
2022-12-01T11:25:22.513Z,27.17
2022-12-01T11:28:03.987Z,30.23
2022-12-01T11:34:28.859Z,27.50
2022-12-01T11:37:08.396Z,27.48
2022-12-01T11:39:41.732Z,27.38
2022-12-01T11:42:26.442Z,29.38
2022-12-01T11:45:27.855Z,25.70
2022-12-01T11:48:30.357Z,25.75
2022-12-01T11:51:24.251Z,26.23
2022-12-01T11:54:27.290Z,25.75
2022-12-01T11:57:31.951Z,26.80
2022-12-01T11:59:44.571Z,24.98
2022-12-01T12:02:35.230Z,26.13
2022-12-01T12:05:40.352Z,26.80
2022-12-01T12:08:30.818Z,26.83
2022-12-01T12:11:20.791Z,24.77
2022-12-01T12:14:31.271Z,26.10
2022-12-01T12:17:43.409Z,27.60
2022-12-01T12:21:03.095Z,26.02
2022-12-01T12:24:00.931Z,26.17
2022-12-01T12:26:50.740Z,27.27
2022-12-01T12:30:11.808Z,25.02
2022-12-01T12:32:57.692Z,23.92
2022-12-01T12:35:37.703Z,24.77
2022-12-01T12:38:44.657Z,23.85
2022-12-01T12:41:58.169Z,24.08
2022-12-01T12:45:22.080Z,23.30
2022-12-01T12:49:12.026Z,24.33
2022-12-01T12:51:56.415Z,23.02
2022-12-01T12:55:06.328Z,26.05
2022-12-01T12:57:45.589Z,26.60
2022-12-01T13:00:26.598Z,27.35
2022-12-01T13:03:15.405Z,24.50
2022-12-01T13:06:09.153Z,24.83
2022-12-01T13:09:44.773Z,26.65
2022-12-01T13:13:19.773Z,26.30
2022-12-01T13:16:04.819Z,27.48
2022-12-01T13:18:53.094Z,24.33
2022-12-01T13:21:44.250Z,29.13
2022-12-01T13:24:54.277Z,29.52
2022-12-01T13:27:57.087Z,28.20
2022-12-01T13:31:32.171Z,27.30
2022-12-01T13:34:41.469Z,24.35
2022-12-01T13:37:11.055Z,25.55
2022-12-01T13:39:41.779Z,25.50
2022-12-01T13:42:26.398Z,26.38
2022-12-01T13:45:02.490Z,27.65
2022-12-01T13:47:54.770Z,28.23
2022-12-01T13:50:43.037Z,27.08
2022-12-01T13:53:45.211Z,24.23
2022-12-01T14:00:41.723Z,25.75
2022-12-01T14:03:15.602Z,25.27
2022-12-01T14:06:21.828Z,24.67
2022-12-01T14:08:58.074Z,26.80
2022-12-01T14:11:30.024Z,24.20
2022-12-01T14:14:12.036Z,24.80
2022-12-01T14:17:02.555Z,23.63
2022-12-01T14:19:46.992Z,28.33
2022-12-01T14:22:45.589Z,28.08
2022-12-01T14:25:22.521Z,26.10
2022-12-01T14:27:55.636Z,25.10
2022-12-01T14:30:46.915Z,26.85
2022-12-01T14:33:39.107Z,27.45
2022-12-01T14:36:23.060Z,28.73
2022-12-01T14:38:57.715Z,26.58
2022-12-01T14:41:39.675Z,26.90
2022-12-01T14:44:44.018Z,26.48
2022-12-01T14:47:11.645Z,26.85
2022-12-01T14:50:06.910Z,26.98
2022-12-01T14:52:53.857Z,24.25
2022-12-01T14:55:40.768Z,26.02
2022-12-01T14:58:32.153Z,25.55
2022-12-01T15:01:09.137Z,25.80
2022-12-01T15:03:51.502Z,27.25
2022-12-01T15:06:25.994Z,24.83
2022-12-01T15:12:07.666Z,28.55
2022-12-01T15:14:48.732Z,26.95
2022-12-01T15:17:34.603Z,25.23
2022-12-01T15:20:03.246Z,24.90
2022-12-01T15:22:33.872Z,24.77
2022-12-01T15:25:15.048Z,24.75
2022-12-01T15:27:44.203Z,31.15
2022-12-01T15:30:18.798Z,27.40
2022-12-01T15:32:46.442Z,25.85
2022-12-01T15:35:25.019Z,24.63
2022-12-01T15:37:54.912Z,27.77
2022-12-01T15:43:33.067Z,27.42
2022-12-01T15:46:12.911Z,27.42
2022-12-01T15:48:43.113Z,26.65
2022-12-01T15:51:35.363Z,29.95
2022-12-01T15:54:33.934Z,36.22
2022-12-01T15:57:03.489Z,27.88
2022-12-01T15:59:45.098Z,25.13
2022-12-01T16:02:32.615Z,26.48
2022-12-01T16:05:16.504Z,26.08
2022-12-01T16:08:12.813Z,24.63
2022-12-01T16:10:36.985Z,24.67
2022-12-01T16:13:40.340Z,27.92
2022-12-01T16:16:45.085Z,26.17
2022-12-01T16:19:12.395Z,27.33
2022-12-01T16:21:58.728Z,30.02
2022-12-01T16:24:48.306Z,28.27
2022-12-01T16:27:31.185Z,29.35
2022-12-01T16:30:11.216Z,28.25
2022-12-01T16:32:42.680Z,27.23
2022-12-01T16:35:31.723Z,26.05
2022-12-01T16:38:28.786Z,30.25
2022-12-01T16:41:01.485Z,28.63
2022-12-01T16:43:37.128Z,28.75
2022-12-01T16:46:13.662Z,29.77
2022-12-01T16:48:41.425Z,29.75
2022-12-01T16:51:14.601Z,29.65
2022-12-01T16:53:51.173Z,31.33
2022-12-01T16:56:19.296Z,31.15
2022-12-01T16:58:46.738Z,31.33
2022-12-01T17:01:14.459Z,29.40
2022-12-01T17:03:44.920Z,28.63
2022-12-01T17:06:22.752Z,29.15
2022-12-01T17:08:50.523Z,28.83
2022-12-01T17:11:18.290Z,28.83
2022-12-01T17:13:46.073Z,30.00
2022-12-01T17:16:18.760Z,30.15
2022-12-01T17:18:48.896Z,29.90
2022-12-01T17:21:18.514Z,33.00
2022-12-01T17:23:46.357Z,29.30
2022-12-01T17:26:18.080Z,27.55
2022-12-01T17:28:46.069Z,27.70
2022-12-01T17:31:14.948Z,27.20
2022-12-01T17:33:42.842Z,28.92
2022-12-01T17:36:15.540Z,30.60
2022-12-01T17:38:46.899Z,27.35
2022-12-01T17:41:21.974Z,30.23
2022-12-01T17:43:52.198Z,31.98
2022-12-01T17:46:23.291Z,29.63
2022-12-01T17:48:50.765Z,31.10
2022-12-01T17:51:18.520Z,30.15
2022-12-01T17:53:50.482Z,31.80
2022-12-01T17:56:23.143Z,30.88
2022-12-01T17:58:51.351Z,30.40
2022-12-01T18:01:30.261Z,29.42
2022-12-01T18:04:15.451Z,27.33
2022-12-01T18:06:54.555Z,33.00
2022-12-01T18:09:22.541Z,28.90
2022-12-01T18:11:50.767Z,30.13
2022-12-01T18:14:18.356Z,29.58
2022-12-01T18:16:46.269Z,28.77
2022-12-01T18:19:39.153Z,32.38
2022-12-01T18:22:18.683Z,30.13
2022-12-01T18:24:57.990Z,29.15
2022-12-01T18:27:25.431Z,30.77
2022-12-01T18:29:55.073Z,29.63
2022-12-01T18:32:22.551Z,31.75
2022-12-01T18:34:50.210Z,28.35
2022-12-01T18:37:23.954Z,29.38
2022-12-01T18:39:51.732Z,30.92
2022-12-01T18:42:19.129Z,30.00
2022-12-01T18:44:46.802Z,31.98
2022-12-01T18:47:14.101Z,32.50
2022-12-01T18:49:47.672Z,32.30
2022-12-01T18:52:15.225Z,29.20
2022-12-01T18:54:46.965Z,31.38
2022-12-01T18:57:14.967Z,30.52
2022-12-01T18:59:42.376Z,33.78
2022-12-01T19:02:14.289Z,28.67
2022-12-01T19:04:44.589Z,29.98
2022-12-01T19:07:12.685Z,28.77
2022-12-01T19:09:41.362Z,32.22
2022-12-01T19:12:09.661Z,31.23
2022-12-01T19:14:37.009Z,28.08
2022-12-01T19:17:06.842Z,29.60
2022-12-01T19:19:48.812Z,29.70
2022-12-01T19:22:22.007Z,30.40
2022-12-01T19:25:11.222Z,30.08
2022-12-01T19:27:38.489Z,29.08
2022-12-01T19:30:08.863Z,31.33
2022-12-01T19:32:36.481Z,29.73
2022-12-01T19:35:04.191Z,28.95
2022-12-01T19:37:31.469Z,30.52
2022-12-01T19:39:58.884Z,31.42
2022-12-01T19:42:29.189Z,29.52
2022-12-01T19:44:59.320Z,29.33
2022-12-01T19:47:35.359Z,29.60
2022-12-01T19:50:03.172Z,29.33
2022-12-01T19:52:33.107Z,31.67
2022-12-01T19:55:00.487Z,29.50
2022-12-01T19:57:32.034Z,28.65
2022-12-01T19:59:59.365Z,27.90
2022-12-01T20:02:29.303Z,29.27
2022-12-01T20:04:57.073Z,29.40
2022-12-01T20:07:24.385Z,31.02
2022-12-01T20:09:51.807Z,28.52
2022-12-01T20:12:19.502Z,29.02
2022-12-01T20:14:46.940Z,29.20
2022-12-01T20:17:16.065Z,29.30
2022-12-01T20:19:43.551Z,30.25
2022-12-01T20:22:11.060Z,32.40
2022-12-01T20:24:41.152Z,30.77
2022-12-01T20:27:11.737Z,29.08
2022-12-01T20:29:43.850Z,30.42
2022-12-01T20:32:23.644Z,29.08
2022-12-01T20:34:51.853Z,29.77
2022-12-01T20:37:21.491Z,29.10
2022-12-01T20:39:48.814Z,27.90
2022-12-01T20:42:19.300Z,28.00
2022-12-01T20:44:46.786Z,31.02
2022-12-01T20:47:16.700Z,31.10
2022-12-01T20:50:33.454Z,31.98
2022-12-01T20:53:14.343Z,30.33
2022-12-01T20:55:42.045Z,30.05
2022-12-01T20:58:09.918Z,30.75
2022-12-01T21:00:46.952Z,30.80
2022-12-01T21:03:15.368Z,31.55
2022-12-01T21:05:44.025Z,28.85
2022-12-01T21:08:14.451Z,30.92
2022-12-01T21:10:46.441Z,32.88
2022-12-01T21:13:42.333Z,33.70
2022-12-01T21:16:28.294Z,29.05
2022-12-01T21:19:12.323Z,32.63
2022-12-01T21:21:41.906Z,29.13
2022-12-01T21:24:44.543Z,33.20
2022-12-01T21:27:17.777Z,30.40
2022-12-01T21:29:50.205Z,32.55
2022-12-01T21:32:29.809Z,34.90
2022-12-01T21:35:25.236Z,30.23
2022-12-01T21:38:04.642Z,32.92
2022-12-01T21:40:32.208Z,30.67
2022-12-01T21:43:22.819Z,32.35
2022-12-01T21:46:09.478Z,30.10
2022-12-01T21:48:37.455Z,33.47
2022-12-01T21:51:23.996Z,29.58
2022-12-01T21:54:06.302Z,32.15
2022-12-01T21:56:56.239Z,31.70
2022-12-01T21:59:24.604Z,30.50
2022-12-01T22:01:57.787Z,27.92
2022-12-01T22:04:34.534Z,30.90
2022-12-01T22:07:04.543Z,31.33
2022-12-01T22:09:36.529Z,30.58
2022-12-01T22:12:24.652Z,33.75
2022-12-01T22:15:02.145Z,33.33
2022-12-01T22:17:32.038Z,29.48
2022-12-01T22:20:21.869Z,31.63
2022-12-01T22:22:53.210Z,30.75
2022-12-01T22:25:31.455Z,29.15
2022-12-01T22:28:03.143Z,32.47
2022-12-01T22:30:55.078Z,29.83
2022-12-01T22:33:38.634Z,30.42
2022-12-01T22:36:43.270Z,34.67
2022-12-01T22:39:58.909Z,29.38
2022-12-01T22:42:37.579Z,29.35
2022-12-01T22:45:25.628Z,31.73
2022-12-01T22:48:01.149Z,32.38
2022-12-01T22:50:50.079Z,31.15
2022-12-01T22:54:04.583Z,33.38
2022-12-01T22:57:37.114Z,31.17
2022-12-01T23:00:23.441Z,32.00
2022-12-01T23:02:56.633Z,31.05
2022-12-01T23:05:28.014Z,31.70
2022-12-01T23:07:58.042Z,31.25
2022-12-01T23:10:31.824Z,30.02
2022-12-01T23:13:13.128Z,31.25
2022-12-01T23:15:45.914Z,32.72
2022-12-01T23:18:21.940Z,33.75
2022-12-01T23:20:59.579Z,33.50
2022-12-01T23:23:35.941Z,29.58
2022-12-01T23:26:10.898Z,32.00
2022-12-01T23:28:40.652Z,29.80
2022-12-01T23:31:11.303Z,31.65
2022-12-01T23:33:38.929Z,31.73
2022-12-01T23:36:32.819Z,32.30
2022-12-01T23:39:12.070Z,33.92
2022-12-01T23:41:46.862Z,31.20
2022-12-01T23:44:38.686Z,30.40
2022-12-01T23:47:27.122Z,29.90
2022-12-01T23:50:14.870Z,31.13
2022-12-01T23:53:07.848Z,31.00
2022-12-01T23:55:57.861Z,29.02
2022-12-01T23:58:38.358Z,31.13
